Nearby METAR Reports

METAR is the scheduled surface weather observation taken hourly at civil and military airport locations.

METAR is an acronym from the French language and roughly translates as Aviation Routine Weather Report.

 

EGPL - Benbecula Island, United Kingdom
Distance from station: WNW 41mi, 66km
Updated: 22/06/2017 19:20
Light rain, Overcast
Light rain, Overcast
 Wind from S
Wind: S 18 mph , 30 km/h
Temperature: 13°C
Dew Point: 12°C
Humidity: 94%
Barometer: 1005 hPa
Summary: Light rain
Clouds: Overcast
Visibility: 4 miles , 7 km
Cloud details: Overcast 183 m
2017/06/22 18:20 EGPL 221820Z AUTO 18016KT 7000 -RA OVC006/// 13/12 Q1005 RERA
EGPU - Tiree Island, United Kingdom
Distance from station: SSW 56mi, 90km
Updated: 22/06/2017 19:20
Rain, Partly cloudy
Rain, Partly cloudy
 Wind from SSW
Wind: SSW 18 mph , 30 km/h
Temperature: 13°C
Dew Point: 12°C
Humidity: 94%
Barometer: 1007 hPa
Summary: Rain
Clouds: Partly cloudy
Visibility: 3 miles , 5 km
Cloud details: Mostly cloudy 183 m
Partly cloudy 549 m
2017/06/22 18:20 EGPU 221820Z AUTO 21016KT 180V240 5000 RA BKN006/// SCT018/// 13/12 Q1007
 
EGEO - Oban Airport, United Kingdom
Distance from station: SE 65mi, 105km
Updated: 22/06/2017 16:50
NOT Current
Mostly cloudy
Mostly cloudy
 Wind from WSW
Wind: WSW 15 mph , 24 km/h
Temperature: 14°C
Dew Point: 10°C
Humidity: 77%
Barometer: 1010 hPa
Clouds: Mostly cloudy
Visibility: 6 miles , 10 km
Cloud details: Few Clouds 366 m
Partly cloudy 732 m
Mostly cloudy 1036 m
2017/06/22 15:50 EGEO 221550Z 24013KT 9999 FEW012 SCT024 BKN034 14/10 Q1010
EGPO - Stornoway, United Kingdom
Distance from station: 0 66mi, 106km
Updated: 22/06/2017 19:20
Light rain, Mostly cloudy
Light rain, Mostly cloudy
 Wind from S
Wind: S 20 mph , 31 km/h
Temperature: 12°C
Dew Point: 11°C
Humidity: 94%
Barometer: 1005 hPa
Summary: Light rain
Clouds: Mostly cloudy
Visibility: 6 miles , 10 km
Cloud details: Few Clouds 244 m
Partly cloudy 640 m
Mostly cloudy 1280 m
2017/06/22 18:20 EGPO 221820Z 19017KT 9999 -RA FEW008 SCT021 BKN042 12/11 Q1005
 
EGPE - Inverness/Dalcro, United Kingdom
Distance from station: ENE 88mi, 141km
Updated: 22/06/2017 19:20
Partly cloudy
Partly cloudy
 Wind from WSW
Wind: WSW 12 mph , 19 km/h
Temperature: 15°C
Dew Point: 11°C
Humidity: 77%
Barometer: 1007 hPa
Clouds: Partly cloudy
Visibility: 6 miles , 10 km
Cloud details: Few Clouds 732 m
Partly cloudy 1097 m
2017/06/22 18:20 EGPE 221820Z 24010KT 9999 FEW024 SCT036 15/11 Q1007
EGQA - Tain Range (saws, United Kingdom
Distance from station: ENE 97mi, 156km
Updated: 22/06/2017 14:50
NOT Current
Mostly cloudy
Mostly cloudy
 Wind from E
Wind: E 7 mph , 11 km/h
Clouds: Mostly cloudy
Visibility: 6 miles , 10 km
Cloud details: Few Clouds 762 m
Mostly cloudy 1067 m
2017/06/22 13:50 EGQA 221350Z 10006KT 9999 FEW025 BKN035 17/// Q1008 BLU
 
EGQK - Kinloss Raf, United Kingdom
Distance from station: ENE 107mi, 171km
Updated: 22/06/2017 18:50
Mostly cloudy
Mostly cloudy
 Wind from W
Wind: W 8 mph , 13 km/h
Temperature: 17°C
Dew Point: 10°C
Humidity: 64%
Barometer: 1007 hPa
Clouds: Mostly cloudy
Visibility: 6 miles , 10 km
Cloud details: Few Clouds 1036 m
Mostly cloudy 1372 m
Mostly cloudy 3353 m
2017/06/22 17:50 EGQK 221750Z AUTO 27007KT 9999 FEW034/// BKN045/// BKN110/// 17/10 Q1007
EGPI - Islay/Port Ellen, United Kingdom
Distance from station: S 110mi, 177km
Updated: 22/06/2017 19:20
Light rain, Showers, Overcast
Light rain, Showers, Overcast
 Wind from SSE
Wind: SSE 9 mph , 15 km/h
Temperature: 13°C
Dew Point: 11°C
Humidity: 88%
Barometer: 1009 hPa
Summary: Light rain, Showers
Clouds: Overcast
Visibility: 6 miles , 10 km
Cloud details: Overcast 732 m
2017/06/22 18:20 EGPI 221820Z AUTO 15008KT 9999 -SHRA OVC024/// 13/11 Q1009
 
EGQS - Lossiemouth Raf, United Kingdom
Distance from station: ENE 117mi, 188km
Updated: 22/06/2017 18:50
Mostly cloudy
Mostly cloudy
 Wind from SSE
Wind: SSE 7 mph , 11 km/h
Temperature: 16°C
Dew Point: 11°C
Humidity: 72%
Barometer: 1007 hPa
Clouds: Mostly cloudy
Visibility: 6 miles , 10 km
Cloud details: Few Clouds 914 m
Partly cloudy 1158 m
Mostly cloudy 1372 m
2017/06/22 17:50 EGQS 221750Z 15006KT 9999 FEW030 SCT038 BKN045 16/11 Q1007 BLU
EGPF - Glasgow Airport, United Kingdom
Distance from station: SE 121mi, 195km
Updated: 22/06/2017 19:20
Mostly cloudy
Mostly cloudy
 Wind from WSW
Wind: WSW 8 mph , 13 km/h
Temperature: 15°C
Dew Point: 10°C
Humidity: 72%
Barometer: 1010 hPa
Clouds: Mostly cloudy
Visibility: 6 miles , 10 km
Cloud details: Mostly cloudy 792 m
Mostly cloudy 1006 m
2017/06/22 18:20 EGPF 221820Z AUTO 24007KT 9999 BKN026 BKN033 15/10 Q1010
 
EGEC - Campbeltown, United Kingdom
Distance from station: SSE 129mi, 207km
Updated: 22/06/2017 17:50
NOT Current
Mostly cloudy
Mostly cloudy
 Wind from NW
Wind: NW 6 mph , 9 km/h
Temperature: 13°C
Dew Point: 11°C
Humidity: 88%
Barometer: 1011 hPa
Clouds: Mostly cloudy
Visibility: 6 miles , 10 km
Cloud details: Few Clouds 366 m
Mostly cloudy 701 m
2017/06/22 16:50 EGEC 221650Z 31005KT 9999 FEW012 BKN023 13/11 Q1011
EGPN - Dundee/Riverside, United Kingdom
Distance from station: ESE 137mi, 221km
Updated: 22/06/2017 19:20
Partly cloudy
Partly cloudy
 Wind from ENE
Wind: ENE 6 mph , 9 km/h
Temperature: 15°C
Dew Point: 13°C
Humidity: 88%
Barometer: 1008 hPa
Clouds: Partly cloudy
Visibility: 6 miles , 10 km
Cloud details: Partly cloudy 762 m
2017/06/22 18:20 EGPN 221820Z 07005KT 9999 SCT025 15/13 Q1008
 
EGPK - Prestwick(Civ/Na, United Kingdom
Distance from station: SSE 139mi, 224km
Updated: 22/06/2017 18:20
NOT Current
Partly cloudy
Partly cloudy
 Wind from WSW
Wind: WSW 12 mph , 19 km/h
Temperature: 16°C
Dew Point: 10°C
Humidity: 68%
Barometer: 1011 hPa
Clouds: Partly cloudy
Visibility: 6 miles , 10 km
Cloud details: Few Clouds 366 m
Partly cloudy 975 m
2017/06/22 17:20 EGPK 221720Z 25010KT 9999 FEW012 SCT032 16/10 Q1011
EGQL - Leuchars Raf, United Kingdom
Distance from station: ESE 145mi, 233km
Updated: 22/06/2017 18:50
Mostly cloudy
Mostly cloudy
 Wind from SSE
Wind: SSE 6 mph , 9 km/h
Temperature: 16°C
Dew Point: 13°C
Humidity: 83%
Barometer: 1008 hPa
Clouds: Mostly cloudy
Visibility: 6 miles , 10 km
Cloud details: Mostly cloudy 975 m
Mostly cloudy 1372 m
2017/06/22 17:50 EGQL 221750Z 15005KT 9999 BKN032 BKN045 16/13 Q1008 BLU
 
EGPH - Edinburgh Airpor, United Kingdom
Distance from station: SE 145mi, 234km
Updated: 22/06/2017 19:20
Mostly cloudy
Mostly cloudy
 Wind from W
Wind: W 12 mph , 19 km/h
Temperature: 16°C
Dew Point: 11°C
Humidity: 72%
Barometer: 1009 hPa
Clouds: Mostly cloudy
Visibility: 6 miles , 10 km
Cloud details: Mostly cloudy 792 m
2017/06/22 18:20 EGPH 221820Z 26010KT 230V290 9999 BKN026 16/11 Q1009
EGPC - Wick, United Kingdom
Distance from station: NE 146mi, 234km
Updated: 22/06/2017 19:20
Partly cloudy
Partly cloudy
 Wind from SE
Wind: SE 10 mph , 17 km/h
Temperature: 13°C
Dew Point: 11°C
Humidity: 88%
Barometer: 1007 hPa
Clouds: Partly cloudy
Visibility: 6 miles , 10 km
Cloud details: Few Clouds 152 m
Partly cloudy 945 m
2017/06/22 18:20 EGPC 221820Z 14009KT 9999 FEW005 SCT031 13/11 Q1007

-

free counters
QR Code Twitter Scottish Weather Network UK Weather Network
Argyll House B & B

Argyll House B & B is situated in North West Skye and is the perfect base to see all that the Isle of Skye has to offer.
Bookings been taken for 2017.